Home > Products > Valid Products > TAF

000
FTUS44 KAMA 241700
TAFGUY
TAF
KGUY 241720Z 2418/2518 29009KT P6SM SCT100
     FM250200 33013KT P6SM SCT080=



000
FTUS44 KAMA 241700
TAFAMA
TAF
KAMA 241720Z 2418/2518 29009KT P6SM SCT100
     FM250400 36013KT P6SM SCT080=



000
FTUS44 KAMA 241700
TAFDHT
TAF
KDHT 241720Z 2418/2518 30009KT P6SM SCT100
     FM250200 35013KT P6SM FEW100=



000
FTUS44 KAMA 241100
TAFAMA
TAF
KAMA 241120Z 2412/2512 28008KT P6SM SCT100
     FM250400 36013KT P6SM SCT080=



000
FTUS44 KAMA 241100
TAFGUY
TAF
KGUY 241120Z 2412/2512 27015KT P6SM FEW100
     FM242100 33013KT P6SM SCT080=



000
FTUS44 KAMA 241100
TAFDHT
TAF
KDHT 241120Z 2412/2512 26008KT P6SM SCT100
     FM250200 35013KT P6SM FEW100=



000
FTUS44 KAMA 240700 AAB
TAFDHT
TAF AMD
KDHT 240759Z 2408/2506 31008KT P6SM SCT100
     FM250000 35012KT P6SM SCT100=



000
FTUS44 KAMA 240600 AAA
TAFDHT
TAF AMD
KDHT 240659Z 2407/2506 31012KT P6SM SCT100
     FM250000 35012KT P6SM SCT100=



000
FTUS44 KAMA 240500
TAFDHT
TAF
KDHT 240532Z 2406/2506 28012KT P6SM SCT100
     FM250000 35012KT P6SM SCT100=



000
FTUS44 KAMA 240500
TAFAMA
TAF
KAMA 240532Z 2406/2506 28010KT P6SM FEW100
     FM241700 28016KT P6SM SKC
     FM250200 35014KT P6SM SCT100=



000
FTUS44 KAMA 240500
TAFGUY
TAF
KGUY 240532Z 2406/2506 28010KT P6SM SCT100
     FM241800 29012G24KT P6SM FEW100
     FM242300 35011KT P6SM BKN100=



000
FTUS44 KAMA 232300
TAFDHT
TAF
KDHT 232320Z 2400/2424 33009KT P6SM BKN120
     FM240900 27012KT P6SM SCT080
     FM242300 35011KT P6SM BKN080=



000
FTUS44 KAMA 232300
TAFAMA
TAF
KAMA 232320Z 2400/2424 30010KT P6SM SCT100
     FM241700 28016KT P6SM SKC
     FM242300 35011KT P6SM FEW100=



000
FTUS44 KAMA 232300
TAFGUY
TAF
KGUY 232320Z 2400/2424 33010KT P6SM BKN120
     FM240600 28012KT P6SM SKC
     FM241800 30012G24KT P6SM FEW080
     FM242300 35011KT P6SM BKN080=



000
FTUS44 KAMA 232100 AAC
TAFAMA
TAF AMD
KAMA 232153Z 2322/2418 35012G25KT P6SM BKN050
     FM240100 30014KT P6SM SCT100=



000
FTUS44 KAMA 232100 AAC
TAFAMA
TAF AMD
KAMA 232153Z 2322/2418 35012G25KT P6SM BKN050
     FM240100 30014KT P6SM SCT100=



000
FTUS44 KAMA 232000 AAB
TAFAMA
TAF AMD
KAMA 232054Z 2321/2418 34020G30KT P6SM OVC050
      TEMPO 2321/2323 5SM -RASN BKN010 OVC030
     FM240100 30014KT P6SM SCT100=



000
FTUS44 KAMA 232000 AAA
TAFGUY
TAF AMD
KGUY 232017Z 2320/2418 35020G30KT P6SM OVC080
     FM240000 30012KT P6SM BKN080=



000
FTUS44 KAMA 232000 AAA
TAFGUY
TAF AMD
KGUY 232017Z 2320/2418 35020G30KT P6SM OVC080
     FM240000 30012KT P6SM BKN080=



000
FTUS44 KAMA 232000 AAA
TAFDHT
TAF AMD
KDHT 232016Z 2320/2418 35017G24KT P6SM OVC050
     FM240000 32012KT P6SM BKN100=



000
FTUS44 KAMA 232000 AAA
TAFDHT
TAF AMD
KDHT 232016Z 2320/2418 35017G24KT P6SM OVC050
     FM240000 32012KT P6SM BKN100=



000
FTUS44 KAMA 232000 AAA
TAFAMA
TAF AMD
KAMA 232014Z 2320/2418 34020G30KT P6SM OVC050
      TEMPO 2320/2323 5SM -RASN FEW010 OVC030
     FM240100 30014KT P6SM SCT100=



000
FTUS44 KAMA 232000 AAA
TAFAMA
TAF AMD
KAMA 232014Z 2320/2418 34020G30KT P6SM OVC050
      TEMPO 2320/2323 5SM -RASN FEW010 OVC030
     FM240100 30014KT P6SM SCT100=



000
FTUS44 KAMA 231700
TAFGUY
TAF
KGUY 231720Z 2318/2418 35030G40KT P6SM BKN050 OVC100
      TEMPO 2318/2321 5SM -RASN BKN030
     FM240000 30012KT P6SM BKN100=



000
FTUS44 KAMA 231700
TAFDHT
TAF
KDHT 231720Z 2318/2418 35030G40KT P6SM OVC050
      TEMPO 2318/2321 5SM -RASN BKN030
     FM240000 32012KT P6SM BKN100=



000
FTUS44 KAMA 231700
TAFAMA
TAF
KAMA 231720Z 2318/2418 34030G40KT P6SM BKN050 OVC100
      TEMPO 2320/2323 5SM -RASN BKN030
     FM240100 30014KT P6SM SCT100=



000
FTUS44 KAMA 231100
TAFGUY
TAF
KGUY 231133Z 2312/2412 32015G23KT P6SM SCT120 WS015/36050KT
     FM231400 35030G40KT P6SM BKN040
      TEMPO 2315/2319 5SM -RASN BLDU BKN015
     FM231900 35030G40KT P6SM BKN020
     FM232100 34024G34KT P6SM BKN100
     FM240000 30010KT P6SM BKN150=



000
FTUS44 KAMA 231100
TAFAMA
TAF
KAMA 231133Z 2312/2412 29018G28KT P6SM SCT120
     FM231500 34030G40KT P6SM BKN040
      TEMPO 2317/2321 5SM -RASN BLDU BKN020
     FM232100 33024G34KT P6SM BKN035
     FM240000 30010KT P6SM BKN100=



000
FTUS44 KAMA 231100
TAFDHT
TAF
KDHT 231133Z 2312/2412 29016G24KT P6SM SCT120
     FM231400 35030G40KT P6SM BKN040
      TEMPO 2315/2319 5SM -RASN BLDU BKN020
     FM231900 35026G36KT P6SM SCT025 BKN080
     FM240000 32010KT P6SM BKN100=



000
FTUS44 KAMA 230700 AAA
TAFDHT
TAF AMD
KDHT 230701Z 2307/2406 28014KT P6SM SCT120
     FM231200 35025G30KT P6SM BKN050
     FM231600 35016KT P6SM BKN035=



000
FTUS44 KAMA 230700 AAA
TAFAMA
TAF AMD
KAMA 230700Z 2307/2406 23015G20KT P6SM SCT250 WS005/25045KT
     FM230900 26017KT P6SM SCT120 WS005/29045KT
     FM231400 34025G33KT P6SM BKN050
     FM231800 34020KT P6SM BKN035=



000
FTUS44 KAMA 230500 CCA
TAFAMA
TAF COR
KAMA 230533Z 2306/2406 17015KT P6SM SCT250 WS005/25045KT
     FM230900 26017KT P6SM SCT120 WS005/29045KT
     FM231400 34025G33KT P6SM BKN050
     FM231800 34020KT P6SM BKN035=



000
FTUS44 KAMA 230500
TAFGUY
TAF
KGUY 230520Z 2306/2406 18015KT P6SM FEW250
     FM230900 26012KT P6SM SCT120
     FM231200 35025G31KT P6SM BKN050
     FM231600 35020KT P6SM BKN035=



000
FTUS44 KAMA 230500
TAFDHT
TAF
KDHT 230520Z 2306/2406 19012KT P6SM FEW250
     FM230800 28014KT P6SM SCT120
     FM231200 35025G30KT P6SM BKN050
     FM231600 35016KT P6SM BKN035=



000
FTUS44 KAMA 230500
TAFAMA
TAF
KAMA 230520Z 2306/2406 17015KT P6SM SCT250
     FM230900 26017KT P6SM SCT120
     FM231400 34025G33KT P6SM BKN050
     FM231800 34020KT P6SM BKN035=



000
FTUS44 KAMA 230200 AAB
TAFAMA
TAF AMD
KAMA 230259Z 2303/2324 16012KT P6SM SCT005
     FM230400 21015KT P6SM SCT250
     FM230900 26018KT P6SM SCT250
     FM231400 34023G31KT P6SM BKN050=



000
FTUS44 KAMA 230100 AAA
TAFAMA
TAF AMD
KAMA 230101Z 2301/2324 21012KT P6SM SCT005
      TEMPO 2302/2304 2SM BR BKN005
     FM230900 26018KT P6SM SCT250
     FM231400 34023G31KT P6SM BKN050=



000
FTUS44 KAMA 222300
TAFGUY
TAF
KGUY 222324Z 2300/2324 21015KT P6SM FEW250
     FM230800 29012KT P6SM SCT250
     FM231200 35022G30KT P6SM BKN050=



000
FTUS44 KAMA 222300
TAFDHT
TAF
KDHT 222324Z 2300/2324 22015KT P6SM FEW250
     FM230800 27014KT P6SM SCT250
     FM231200 35018G26KT P6SM BKN050=



000
FTUS44 KAMA 222300
TAFAMA
TAF
KAMA 222324Z 2300/2324 21012KT P6SM FEW250
     FM230900 26018KT P6SM SCT250
     FM231400 34023G31KT P6SM BKN050=



000
FTUS44 KAMA 222000 AAB
TAFGUY
TAF AMD
KGUY 222059Z 2221/2318 22016G24KT P6SM FEW250
     FM230800 28012KT P6SM SCT250
     FM231200 34016G26KT P6SM BKN050=



000
FTUS44 KAMA 222000 AAA
TAFDHT
TAF AMD
KDHT 222058Z 2221/2318 24016G26KT P6SM FEW250
     FM230800 25014KT P6SM SCT250
     FM231200 32018G26KT P6SM BKN050=



000
FTUS44 KAMA 221800 AAA
TAFGUY
TAF AMD
KGUY 221859Z 2219/2318 22014KT P6SM FEW250
     FM230800 28012KT P6SM SCT250
     FM231200 34016G26KT P6SM BKN050=



000
FTUS44 KAMA 221700
TAFGUY
TAF
KGUY 221740Z 2218/2318 22010KT P6SM FEW250
     FM230800 28012KT P6SM SCT250
     FM231200 34016G26KT P6SM BKN050=



000
FTUS44 KAMA 221700
TAFAMA
TAF
KAMA 221740Z 2218/2318 22014KT P6SM FEW250
     FM230900 24015KT P6SM SCT250
     FM231400 32018G26KT P6SM BKN050=



000
FTUS44 KAMA 221700
TAFDHT
TAF
KDHT 221740Z 2218/2318 22012KT P6SM FEW250
     FM230800 25014KT P6SM SCT250
     FM231200 32018G26KT P6SM BKN050=



000
FTUS44 KAMA 221600 AAA
TAFAMA
TAF AMD
KAMA 221627Z 2216/2312 22014KT P6SM SKC
     FM221700 21014G20KT P6SM SCT250
     FM230000 22015KT P6SM SCT250=



000
FTUS44 KAMA 221100
TAFAMA
TAF
KAMA 221120Z 2212/2312 21011KT P6SM SCT020 BKN200
     FM221700 21014G20KT P6SM SCT250
     FM230000 22015KT P6SM SCT250=



000
FTUS44 KAMA 221100
TAFGUY
TAF
KGUY 221120Z 2212/2312 23008KT P6SM SCT250
     FM221700 20013KT P6SM SCT250
     FM230000 23010KT P6SM SCT250=



000
FTUS44 KAMA 221100
TAFDHT
TAF
KDHT 221120Z 2212/2312 26008KT P6SM SCT250
     FM221700 21013KT P6SM SCT250
     FM230000 25012KT P6SM SCT250=



000
FTUS44 KAMA 220900 AAA
TAFAMA
TAF AMD
KAMA 220942Z 2210/2306 21011KT 6SM BR SCT020 BKN200
     FM221600 23013KT P6SM BKN200
     FM230000 23008KT P6SM SKC=



000
FTUS44 KAMA 220500
TAFAMA
TAF
KAMA 220537Z 2206/2306 17008KT P6SM BKN200
     FM221000 21011KT 4SM BR BKN005
     FM221600 23013KT P6SM BKN200
     FM230000 23008KT P6SM SKC=



000
FTUS44 KAMA 220500
TAFGUY
TAF
KGUY 220537Z 2206/2306 17007KT P6SM BKN200
     FM221500 22013KT P6SM SCT200
     FM230000 25008KT P6SM SKC=



000
FTUS44 KAMA 220500
TAFDHT
TAF
KDHT 220537Z 2206/2306 18008KT P6SM BKN200
     FM221600 22014KT P6SM SCT200
     FM230000 25008KT P6SM SKC=



000
FTUS44 KAMA 212300
TAFGUY
TAF
KGUY 212339Z 2200/2224 17007KT P6SM BKN200
     FM221500 22013KT P6SM SCT200=



000
FTUS44 KAMA 212300
TAFAMA
TAF
KAMA 212339Z 2200/2224 17008KT P6SM BKN200
     FM221000 21011KT 4SM BR BKN005
     FM221600 23013KT P6SM BKN200=



000
FTUS44 KAMA 212300
TAFDHT
TAF
KDHT 212339Z 2200/2224 18008KT P6SM BKN200
     FM221600 22014KT P6SM SCT200=



    US Dept of Commerce
    National Oceanic and Atmospheric Administration
    National Weather Service
    1325 East West Highway
    Silver Spring, MD 20910
    Page Author: NWS Internet Services Team
Disclaimer
Information Quality
Credits
Glossary
Privacy Policy
Freedom of Information Act (FOIA)
About Us
Career Opportunities